Terminal Aerodrome Forecast
Issued by NWS

Current Version | Previous Version | Text Only | Print | Product List | Glossary On
Versions: 1 2 3 4 5 6 7 8 9 10 11 12 13
000
FTUS42 TJSJ 202300
TAFJBQ
TAF
TJBQ 202338Z 2100/2124 10005KT P6SM VCSH SCT025
     FM211400 07010KT P6SM FEW025
     FM211700 06010G15KT P6SM VCTS SCT025CB BKN040
     FM212300 09008KT P6SM SCT025
      AMD NOT SKED 2102/2111=

USA.gov is the U.S. government's official web portal to all federal, state and local government web resources and services.